Time;durP1;ratioP1;P1;durP2;ratioP2;P2;SDS_P1;SDS_P2;PMS_P1;PMS_P2;Temp;Humidity;BMP_temperature;BMP_pressure;BME280_temperature;BME280_humidity;BME280_pressure;Samples;Min_cycle;Max_cycle;Signal;HPM_P1;HPM_P2
2022/10/07 00:02:08;;;;;;;;;;;307.90;2304.00;;;;;;5090318;28;19982;-63
2022/10/07 00:04:33;;;;;;;;;;;307.90;2304.00;;;;;;5090946;28;19917;-62
2022/10/07 00:06:59;;;;;;;;;;;307.90;2304.00;;;;;;5091269;28;19924;-63
2022/10/07 00:09:24;;;;;;;;;;;307.90;2304.00;;;;;;5090125;28;19973;-60
2022/10/07 00:11:50;;;;;;;;;;;307.90;2304.00;;;;;;5091209;28;19908;-62
2022/10/07 00:14:16;;;;;;;;;;;307.80;2304.00;;;;;;5090627;28;20061;-62
2022/10/07 00:16:41;;;;;;;;;;;307.80;2304.00;;;;;;5090523;28;20273;-62
2022/10/07 00:19:09;;;;;;;;;;;307.80;2304.00;;;;;;5090810;28;19908;-63
2022/10/07 00:21:36;;;;;;;;;;;307.80;2304.00;;;;;;5090932;28;19908;-62
2022/10/07 00:24:02;;;;;;;;;;;307.80;2304.00;;;;;;5091150;28;19908;-60
2022/10/07 00:26:30;;;;;;;;;;;307.60;2304.00;;;;;;5090730;28;19908;-59
2022/10/07 00:28:56;;;;;;;;;;;307.80;2304.00;;;;;;5090773;28;19912;-60
2022/10/07 00:31:22;;;;;;;;;;;307.80;2304.00;;;;;;5090865;28;20007;-62
2022/10/07 00:33:48;;;;;;;;;;;307.80;2304.00;;;;;;5090789;28;19967;-61
2022/10/07 00:36:15;;;;;;;;;;;307.70;2304.00;;;;;;5090776;28;19939;-61
2022/10/07 00:38:41;;;;;;;;;;;307.70;2304.00;;;;;;5090897;28;20358;-60
2022/10/07 00:41:07;;;;;;;;;;;307.70;2304.00;;;;;;5090603;28;19915;-61
2022/10/07 00:43:33;;;;;;;;;;;307.60;2304.00;;;;;;5090434;28;19915;-61
2022/10/07 00:46:17;;;;;;;;;;;307.60;2304.00;;;;;;5090867;28;19908;-61
2022/10/07 00:48:45;;;;;;;;;;;307.60;2304.00;;;;;;5090784;28;20300;-60
2022/10/07 00:51:11;;;;;;;;;;;307.70;2304.00;;;;;;5090681;28;19909;-62
2022/10/07 00:53:38;;;;;;;;;;;307.70;2304.00;;;;;;5090265;28;19919;-61
2022/10/07 00:56:04;;;;;;;;;;;307.70;2304.00;;;;;;5090583;28;20435;-61
2022/10/07 00:58:31;;;;;;;;;;;307.80;2304.00;;;;;;5090845;28;20285;-59
2022/10/07 01:00:57;;;;;;;;;;;307.80;2304.00;;;;;;5090389;28;19935;-61
2022/10/07 01:03:23;;;;;;;;;;;307.80;2304.00;;;;;;5090467;28;20352;-62
2022/10/07 01:05:49;;;;;;;;;;;307.70;2304.00;;;;;;5090630;28;19955;-60
2022/10/07 01:08:16;;;;;;;;;;;307.80;2304.00;;;;;;5094713;28;19920;-60
2022/10/07 01:10:50;;;;;;;;;;;307.80;2304.00;;;;;;5095031;28;19912;-60
2022/10/07 01:13:38;;;;;;;;;;;307.70;2304.00;;;;;;5094523;28;19908;-61
2022/10/07 01:16:11;;;;;;;;;;;307.60;2304.00;;;;;;5094466;28;19923;-60
2022/10/07 01:18:44;;;;;;;;;;;307.60;2304.00;;;;;;5094362;28;19909;-60
2022/10/07 01:21:19;;;;;;;;;;;307.60;2304.00;;;;;;5094434;28;20247;-61
2022/10/07 01:23:47;;;;;;;;;;;307.60;2304.00;;;;;;5094229;28;19912;-59
2022/10/07 01:26:13;;;;;;;;;;;307.40;2304.00;;;;;;5094185;28;19908;-60
2022/10/07 01:28:45;;;;;;;;;;;307.50;2304.00;;;;;;5094238;28;19934;-60
2022/10/07 01:31:12;;;;;;;;;;;307.50;2304.00;;;;;;5094287;28;20312;-60
2022/10/07 01:33:39;;;;;;;;;;;307.50;2304.00;;;;;;5094074;28;19966;-62
2022/10/07 01:36:09;;;;;;;;;;;307.60;2304.00;;;;;;5094215;28;19924;-60
2022/10/07 01:38:38;;;;;;;;;;;307.60;2304.00;;;;;;5093875;28;19915;-60
2022/10/07 01:41:07;;;;;;;;;;;307.60;2304.00;;;;;;5094165;28;19919;-61
2022/10/07 01:43:33;;;;;;;;;;;307.60;2304.00;;;;;;5093872;28;19914;-59
2022/10/07 01:45:59;;;;;;;;;;;307.50;2304.00;;;;;;5094149;28;19995;-59
2022/10/07 01:48:25;;;;;;;;;;;307.50;2304.00;;;;;;5094019;28;19919;-60
2022/10/07 01:50:52;;;;;;;;;;;307.40;2304.00;;;;;;5094044;28;19910;-60
2022/10/07 01:53:33;;;;;;;;;;;307.40;2304.00;;;;;;5094011;28;19915;-60
2022/10/07 01:56:17;;;;;;;;;;;307.40;2304.00;;;;;;5094045;28;19919;-60
2022/10/07 01:58:57;;;;;;;;;;;307.40;2304.00;;;;;;5093544;28;20344;-61
2022/10/07 02:01:45;;;;;;;;;;;307.40;2304.00;;;;;;5093738;28;19948;-60
2022/10/07 02:04:20;;;;;;;;;;;307.40;2304.00;;;;;;5093779;28;20023;-60
2022/10/07 02:06:45;;;;;;;;;;;307.30;2304.00;;;;;;5093296;28;19924;-61
2022/10/07 02:09:24;;;;;;;;;;;307.30;2304.00;;;;;;5093592;28;19908;-61
2022/10/07 02:11:52;;;;;;;;;;;307.30;2304.00;;;;;;5093554;28;19953;-59
2022/10/07 02:14:21;;;;;;;;;;;307.30;2304.00;;;;;;5093609;28;19916;-61
2022/10/07 02:16:53;;;;;;;;;;;307.20;2304.00;;;;;;5093454;28;19915;-61
2022/10/07 02:19:21;;;;;;;;;;;307.20;2304.00;;;;;;5092811;28;20312;-62
2022/10/07 02:21:49;;;;;;;;;;;307.20;2304.00;;;;;;5093168;28;19909;-59
2022/10/07 02:24:16;;;;;;;;;;;307.20;2304.00;;;;;;5093237;28;19909;-60
2022/10/07 02:26:42;;;;;;;;;;;307.20;2304.00;;;;;;5093393;28;19933;-61
2022/10/07 02:29:09;;;;;;;;;;;307.20;2304.00;;;;;;5092992;28;20007;-60
2022/10/07 02:31:36;;;;;;;;;;;307.20;2304.00;;;;;;5093218;28;19912;-58
2022/10/07 02:34:03;;;;;;;;;;;307.20;2304.00;;;;;;5093095;28;19916;-61
2022/10/07 02:36:31;;;;;;;;;;;307.20;2304.00;;;;;;5093147;28;19923;-61
2022/10/07 02:38:59;;;;;;;;;;;307.20;2304.00;;;;;;5093196;28;19915;-60
2022/10/07 02:41:30;;;;;;;;;;;282.50;2278.40;;;;;;5092993;28;19912;-60
2022/10/07 02:44:14;;;;;;;;;;;282.50;2278.40;;;;;;5092784;28;19991;-61
2022/10/07 02:46:44;;;;;;;;;;;282.50;2278.40;;;;;;5093098;28;20243;-61
2022/10/07 02:49:11;;;;;;;;;;;282.50;2278.40;;;;;;5092960;28;19930;-61
2022/10/07 02:51:48;;;;;;;;;;;282.50;2278.40;;;;;;5092586;28;20302;-61
2022/10/07 02:54:17;;;;;;;;;;;282.50;2278.40;;;;;;5092765;28;20330;-60
2022/10/07 02:56:43;;;;;;;;;;;282.50;2278.40;;;;;;5092969;28;19999;-62
2022/10/07 02:59:09;;;;;;;;;;;282.50;2278.40;;;;;;5092765;28;19915;-61
2022/10/07 03:01:40;;;;;;;;;;;282.50;2278.40;;;;;;5092474;28;19916;-59
2022/10/07 03:04:06;;;;;;;;;;;282.50;2278.40;;;;;;5092573;28;19957;-60
2022/10/07 03:06:33;;;;;;;;;;;282.50;2278.40;;;;;;5092631;28;19924;-62
2022/10/07 03:08:59;;;;;;;;;;;282.50;2278.40;;;;;;5092716;28;19908;-62
2022/10/07 03:11:25;;;;;;;;;;;282.50;2278.40;;;;;;5092360;28;20330;-61
2022/10/07 03:13:50;;;;;;;;;;;282.50;2278.40;;;;;;5092095;28;19912;-60
2022/10/07 03:16:16;;;;;;;;;;;282.50;2278.40;;;;;;5092127;28;19911;-60
2022/10/07 03:18:41;;;;;;;;;;;282.50;2278.40;;;;;;5092410;28;19908;-62
2022/10/07 03:21:07;;;;;;;;;;;282.50;2278.40;;;;;;5092073;28;19908;-61
2022/10/07 03:23:33;;;;;;;;;;;282.50;2278.40;;;;;;5092113;28;19908;-59
2022/10/07 03:25:59;;;;;;;;;;;282.50;2278.40;;;;;;5092179;28;19951;-62
2022/10/07 03:28:26;;;;;;;;;;;282.50;2278.40;;;;;;5091861;28;19957;-59
2022/10/07 03:30:51;;;;;;;;;;;282.50;2278.40;;;;;;5090938;28;19909;-60
2022/10/07 03:33:18;;;;;;;;;;;282.50;2278.40;;;;;;5091612;28;19912;-59
2022/10/07 03:35:43;;;;;;;;;;;282.50;2278.40;;;;;;5092004;28;19917;-61
2022/10/07 03:38:09;;;;;;;;;;;282.40;2278.40;;;;;;5092077;28;19909;-60
2022/10/07 03:40:35;;;;;;;;;;;282.40;2278.40;;;;;;5091728;28;19908;-58
2022/10/07 03:43:01;;;;;;;;;;;282.40;2278.40;;;;;;5091884;28;19908;-59
2022/10/07 03:45:28;;;;;;;;;;;282.30;2278.40;;;;;;5091512;28;20251;-61
2022/10/07 03:47:53;;;;;;;;;;;282.30;2278.40;;;;;;5091513;28;19915;-60
2022/10/07 03:50:19;;;;;;;;;;;282.20;2278.40;;;;;;5091699;28;19912;-60
2022/10/07 03:52:45;;;;;;;;;;;282.20;2278.40;;;;;;5091424;28;19908;-60
2022/10/07 03:55:10;;;;;;;;;;;282.20;2278.40;;;;;;5091725;28;19917;-60
2022/10/07 03:57:54;;;;;;;;;;;282.30;2278.40;;;;;;5091341;28;19909;-59
2022/10/07 04:00:21;;;;;;;;;;;282.20;2278.40;;;;;;5091432;28;20362;-61
2022/10/07 04:02:47;;;;;;;;;;;282.10;2278.40;;;;;;5091084;28;19998;-61
2022/10/07 04:05:17;;;;;;;;;;;282.10;2278.40;;;;;;5091336;28;20308;-61
2022/10/07 04:07:46;;;;;;;;;;;282.10;2278.40;;;;;;5091182;28;19946;-59
2022/10/07 04:10:14;;;;;;;;;;;282.10;2278.40;;;;;;5091458;28;19915;-60
2022/10/07 04:12:39;;;;;;;;;;;282.10;2278.40;;;;;;5091169;28;19979;-60
2022/10/07 04:15:05;;;;;;;;;;;282.10;2278.40;;;;;;5090907;28;19959;-60
2022/10/07 04:17:31;;;;;;;;;;;282.10;2278.40;;;;;;5091331;28;20312;-61
2022/10/07 04:19:56;;;;;;;;;;;282.10;2278.40;;;;;;5091209;28;20325;-60
2022/10/07 04:22:22;;;;;;;;;;;282.10;2278.40;;;;;;5091347;28;19954;-61
2022/10/07 04:25:32;;;;;;;;;;;282.10;2278.40;;;;;;5091241;28;19908;-58
2022/10/07 04:27:33;;;;;;;;;;;282.00;2278.40;;;;;;5090757;28;19915;-61
2022/10/07 04:29:59;;;;;;;;;;;282.00;2278.40;;;;;;5091073;28;19908;-61
2022/10/07 04:32:25;;;;;;;;;;;282.10;2278.40;;;;;;5090950;28;19912;-60
2022/10/07 04:34:51;;;;;;;;;;;282.10;2278.40;;;;;;5090776;28;19927;-60
2022/10/07 04:37:17;;;;;;;;;;;282.10;2278.40;;;;;;5090315;28;19916;-60
2022/10/07 04:39:42;;;;;;;;;;;282.00;2278.40;;;;;;5091048;28;20411;-61
2022/10/07 04:43:17;;;;;;;;;;;282.10;2278.40;;;;;;5089964;28;20378;-60
2022/10/07 04:44:53;;;;;;;;;;;282.00;2278.40;;;;;;5088108;28;19912;-60
2022/10/07 04:47:19;;;;;;;;;;;282.00;2278.40;;;;;;5090903;28;19908;-61
2022/10/07 04:49:44;;;;;;;;;;;282.00;2278.40;;;;;;5090701;28;20265;-61
2022/10/07 04:52:10;;;;;;;;;;;282.00;2278.40;;;;;;5090854;28;20434;-61
2022/10/07 04:54:38;;;;;;;;;;;282.00;2278.40;;;;;;5090506;28;19938;-59
2022/10/07 04:57:03;;;;;;;;;;;282.10;2278.40;;;;;;5090576;28;19998;-60
2022/10/07 04:59:29;;;;;;;;;;;282.20;2278.40;;;;;;5090660;28;20413;-61
2022/10/07 05:01:55;;;;;;;;;;;282.30;2278.40;;;;;;5090632;28;20410;-62
2022/10/07 05:04:21;;;;;;;;;;;282.40;2278.40;;;;;;5090397;28;20343;-62
2022/10/07 05:06:46;;;;;;;;;;;282.50;2278.40;;;;;;5090241;28;19924;-60
2022/10/07 05:09:12;;;;;;;;;;;307.20;2304.00;;;;;;5090730;28;20273;-61
2022/10/07 05:11:37;;;;;;;;;;;307.30;2304.00;;;;;;5090312;28;20361;-60
2022/10/07 05:14:03;;;;;;;;;;;307.50;2304.00;;;;;;5090274;28;19924;-61
2022/10/07 05:16:28;;;;;;;;;;;307.70;2304.00;;;;;;5090439;28;19912;-60
2022/10/07 05:18:54;;;;;;;;;;;307.80;2304.00;;;;;;5090177;28;19957;-60
2022/10/07 05:21:20;;;;;;;;;;;307.90;2304.00;;;;;;5090439;28;19912;-61
2022/10/07 05:23:46;;;;;;;;;;;308.10;2304.00;;;;;;5090322;28;19908;-61
2022/10/07 05:26:12;;;;;;;;;;;332.80;2329.60;;;;;;5090407;28;19915;-61
2022/10/07 05:28:39;;;;;;;;;;;332.90;2329.60;;;;;;5090353;28;19916;-61
2022/10/07 05:31:10;;;;;;;;;;;333.10;2329.60;;;;;;5090205;28;19912;-60
2022/10/07 05:33:35;;;;;;;;;;;333.30;2329.60;;;;;;5090067;28;19912;-60
2022/10/07 05:36:01;;;;;;;;;;;333.50;2329.60;;;;;;5090325;28;19967;-62
2022/10/07 05:38:27;;;;;;;;;;;333.60;2329.60;;;;;;5089968;28;19908;-60
2022/10/07 05:40:58;;;;;;;;;;;358.40;2329.60;;;;;;5090218;28;19920;-60
2022/10/07 05:43:24;;;;;;;;;;;358.60;2329.60;;;;;;5089993;28;19935;-61
2022/10/07 05:46:00;;;;;;;;;;;358.70;2329.60;;;;;;5090202;28;20007;-62
2022/10/07 05:48:27;;;;;;;;;;;359.00;2329.60;;;;;;5089806;28;19908;-61
2022/10/07 05:50:53;;;;;;;;;;;359.20;2329.60;;;;;;5089974;28;20328;-61
2022/10/07 05:53:19;;;;;;;;;;;384.00;2329.60;;;;;;5091351;28;19908;-61
2022/10/07 05:55:44;;;;;;;;;;;384.10;2329.60;;;;;;5093660;28;20281;-60
2022/10/07 05:58:12;;;;;;;;;;;384.30;2329.60;;;;;;5093618;28;19948;-60
2022/10/07 06:00:41;;;;;;;;;;;384.50;2329.60;;;;;;5093579;28;19908;-60
2022/10/07 06:03:06;;;;;;;;;;;384.80;2329.60;;;;;;5093500;28;19912;-61
2022/10/07 06:05:32;;;;;;;;;;;409.80;2355.20;;;;;;5092660;28;19922;-60
2022/10/07 06:07:58;;;;;;;;;;;435.50;2355.20;;;;;;5093507;28;19918;-60
2022/10/07 06:13:08;;;;;;;;;;;461.70;2380.80;;;;;;5092937;28;20012;-60
2022/10/07 06:15:34;;;;;;;;;;;486.80;2380.80;;;;;;5093105;28;20320;-62
2022/10/07 06:18:00;;;;;;;;;;;487.30;2380.80;;;;;;5093242;28;19912;-61
2022/10/07 06:20:25;;;;;;;;;;;512.80;2278.40;;;;;;5092569;28;20023;-61
2022/10/07 06:22:52;;;;;;;;;;;538.20;2201.60;;;;;;5093344;28;19908;-61
2022/10/07 06:25:17;;;;;;;;;;;563.40;2124.80;;;;;;5092501;28;20313;-61
2022/10/07 06:27:43;;;;;;;;;;;563.50;2099.20;;;;;;5092374;28;19912;-61
2022/10/07 06:30:08;;;;;;;;;;;563.90;2048.00;;;;;;5092600;28;19910;-61
2022/10/07 06:32:34;;;;;;;;;;;563.50;2099.20;;;;;;5092667;28;19956;-61
2022/10/07 06:34:59;;;;;;;;;;;538.50;2099.20;;;;;;5092903;28;19972;-62
2022/10/07 06:37:28;;;;;;;;;;;538.20;2150.40;;;;;;5092620;28;19969;-61
2022/10/07 06:39:53;;;;;;;;;;;538.10;2176.00;;;;;;5092603;28;19916;-62
2022/10/07 06:42:19;;;;;;;;;;;538.30;2150.40;;;;;;5093064;28;20046;-61
2022/10/07 06:44:45;;;;;;;;;;;537.60;2201.60;;;;;;5092090;28;19957;-62
2022/10/07 06:47:10;;;;;;;;;;;512.20;2227.20;;;;;;5091521;28;19912;-61
2022/10/07 06:49:36;;;;;;;;;;;486.90;2355.20;;;;;;5091099;28;19997;-61
2022/10/07 06:52:01;;;;;;;;;;;486.50;2380.80;;;;;;5092956;28;19908;-61
2022/10/07 06:54:27;;;;;;;;;;;486.40;2380.80;;;;;;5092536;28;19916;-61
2022/10/07 06:56:52;;;;;;;;;;;461.50;2380.80;;;;;;5092517;28;19919;-62
2022/10/07 06:59:18;;;;;;;;;;;461.30;2380.80;;;;;;5092639;28;20346;-61
2022/10/07 07:01:43;;;;;;;;;;;461.10;2380.80;;;;;;5091536;28;20366;-61
2022/10/07 07:04:09;;;;;;;;;;;461.00;2380.80;;;;;;5091092;28;19935;-61
2022/10/07 07:06:35;;;;;;;;;;;460.80;2380.80;;;;;;5090810;28;20303;-62
2022/10/07 07:09:03;;;;;;;;;;;436.10;2355.20;;;;;;5091275;28;19915;-61
2022/10/07 07:11:40;;;;;;;;;;;460.80;2380.80;;;;;;5091086;28;19908;-61
2022/10/07 07:14:07;;;;;;;;;;;460.90;2380.80;;;;;;5089271;28;20320;-61
2022/10/07 07:16:34;;;;;;;;;;;461.00;2380.80;;;;;;5090924;28;19915;-61
2022/10/07 07:19:01;;;;;;;;;;;461.00;2380.80;;;;;;5090972;28;20316;-61
2022/10/07 07:21:27;;;;;;;;;;;461.20;2380.80;;;;;;5090770;28;20341;-62
2022/10/07 07:23:53;;;;;;;;;;;461.10;2380.80;;;;;;5090647;28;20003;-60
2022/10/07 07:26:19;;;;;;;;;;;461.30;2380.80;;;;;;5090692;28;19998;-60
2022/10/07 07:28:51;;;;;;;;;;;461.40;2380.80;;;;;;5090456;28;19915;-61
2022/10/07 07:31:17;;;;;;;;;;;461.40;2380.80;;;;;;5087698;28;19912;-61
2022/10/07 07:33:42;;;;;;;;;;;461.60;2380.80;;;;;;5090518;28;19912;-61
2022/10/07 07:36:15;;;;;;;;;;;461.70;2380.80;;;;;;5090599;28;20455;-61
2022/10/07 07:38:50;;;;;;;;;;;486.70;2380.80;;;;;;5088448;28;19908;-61
2022/10/07 07:41:16;;;;;;;;;;;486.80;2380.80;;;;;;5087648;28;19998;-60
2022/10/07 07:43:41;;;;;;;;;;;487.10;2380.80;;;;;;5090363;28;20337;-61
2022/10/07 07:46:07;;;;;;;;;;;486.80;2380.80;;;;;;5090415;28;19961;-62
2022/10/07 07:48:32;;;;;;;;;;;486.70;2380.80;;;;;;5091529;28;19908;-62
2022/10/07 07:50:59;;;;;;;;;;;486.70;2380.80;;;;;;5091777;28;19909;-61
2022/10/07 07:53:24;;;;;;;;;;;486.50;2380.80;;;;;;5090064;28;20392;-62
2022/10/07 07:55:56;;;;;;;;;;;486.40;2380.80;;;;;;5091269;28;19916;-60
2022/10/07 07:58:23;;;;;;;;;;;461.60;2380.80;;;;;;5091684;28;20274;-63
2022/10/07 08:00:57;;;;;;;;;;;486.40;2380.80;;;;;;5091432;28;19908;-62
2022/10/07 08:03:24;;;;;;;;;;;486.60;2380.80;;;;;;5090593;28;19920;-62
2022/10/07 08:05:50;;;;;;;;;;;486.70;2380.80;;;;;;5091198;28;19924;-61
2022/10/07 08:08:16;;;;;;;;;;;486.70;2380.80;;;;;;5091101;28;19908;-60
2022/10/07 08:10:41;;;;;;;;;;;486.80;2380.80;;;;;;5091501;28;19908;-61
2022/10/07 08:13:08;;;;;;;;;;;487.10;2380.80;;;;;;5091216;28;19916;-62
2022/10/07 08:15:34;;;;;;;;;;;487.30;2380.80;;;;;;5090549;28;20015;-62
2022/10/07 08:18:01;;;;;;;;;;;487.20;2380.80;;;;;;5091306;28;20389;-61
2022/10/07 08:20:27;;;;;;;;;;;512.30;2380.80;;;;;;5090870;28;20409;-62
2022/10/07 08:22:52;;;;;;;;;;;512.60;2380.80;;;;;;5091128;28;19927;-62
2022/10/07 08:25:18;;;;;;;;;;;512.80;2380.80;;;;;;5091253;28;19908;-62
2022/10/07 08:27:44;;;;;;;;;;;512.90;2380.80;;;;;;5091046;28;19915;-62
2022/10/07 08:30:09;;;;;;;;;;;512.90;2380.80;;;;;;5090986;28;19954;-62
2022/10/07 08:32:35;;;;;;;;;;;537.70;2406.40;;;;;;5090872;28;19940;-62
2022/10/07 08:35:01;;;;;;;;;;;537.60;2406.40;;;;;;5090799;28;19920;-61
2022/10/07 08:37:26;;;;;;;;;;;537.70;2406.40;;;;;;5090690;28;19981;-62
2022/10/07 08:39:52;;;;;;;;;;;512.90;2380.80;;;;;;5090851;28;19909;-63
2022/10/07 08:42:24;;;;;;;;;;;537.80;2406.40;;;;;;5090708;28;20274;-61
2022/10/07 08:44:50;;;;;;;;;;;538.10;2406.40;;;;;;5089961;28;19923;-62
2022/10/07 08:47:19;;;;;;;;;;;538.00;2406.40;;;;;;5089268;28;19908;-61
2022/10/07 08:50:02;;;;;;;;;;;538.00;2406.40;;;;;;5089159;28;20400;-61
2022/10/07 08:52:31;;;;;;;;;;;538.30;2406.40;;;;;;5088119;28;19908;-61
2022/10/07 08:54:58;;;;;;;;;;;538.20;2406.40;;;;;;5086523;28;19916;-60
2022/10/07 08:57:44;;;;;;;;;;;538.30;2406.40;;;;;;5089180;28;19985;-61
2022/10/07 09:00:11;;;;;;;;;;;538.50;2406.40;;;;;;5087897;28;20069;-63
2022/10/07 09:02:53;;;;;;;;;;;563.20;2432.00;;;;;;5085942;28;19915;-60
2022/10/07 09:05:25;;;;;;;;;;;563.50;2432.00;;;;;;5086773;28;19916;-62
2022/10/07 09:07:54;;;;;;;;;;;563.40;2406.40;;;;;;5088960;28;19920;-62
2022/10/07 09:10:23;;;;;;;;;;;563.40;2355.20;;;;;;5086965;28;20277;-61
2022/10/07 09:12:52;;;;;;;;;;;563.50;2329.60;;;;;;5089223;28;20030;-60
2022/10/07 09:15:36;;;;;;;;;;;563.70;2380.80;;;;;;5086432;28;19916;-61
2022/10/07 09:18:06;;;;;;;;;;;563.50;2304.00;;;;;;5087506;28;20372;-63
2022/10/07 09:20:38;;;;;;;;;;;563.60;2304.00;;;;;;5090521;28;19915;-63
2022/10/07 09:23:05;;;;;;;;;;;563.90;2252.80;;;;;;5089890;28;19912;-61
2022/10/07 09:25:31;;;;;;;;;;;563.60;2252.80;;;;;;5088999;28;19963;-61
2022/10/07 09:27:57;;;;;;;;;;;563.20;2252.80;;;;;;5090154;28;19984;-62
2022/10/07 09:30:24;;;;;;;;;;;563.30;2278.40;;;;;;5093315;28;19927;-60
2022/10/07 09:32:53;;;;;;;;;;;563.50;2278.40;;;;;;5090447;28;19947;-64
2022/10/07 09:35:20;;;;;;;;;;;563.50;2278.40;;;;;;5092795;28;19994;-62
2022/10/07 09:38:08;;;;;;;;;;;563.70;2252.80;;;;;;5092619;28;19908;-61
2022/10/07 09:43:30;;;;;;;;;;;564.10;2176.00;;;;;;5090925;28;19916;-62
2022/10/07 09:45:55;;;;;;;;;;;564.00;2201.60;;;;;;5092534;28;19923;-61
2022/10/07 09:48:23;;;;;;;;;;;588.80;2201.60;;;;;;5092682;28;19927;-63
2022/10/07 09:50:48;;;;;;;;;;;564.10;2201.60;;;;;;5092728;28;20046;-62
2022/10/07 09:53:20;;;;;;;;;;;589.00;2124.80;;;;;;5092292;28;20007;-60
2022/10/07 09:55:45;;;;;;;;;;;589.20;2073.60;;;;;;5092349;28;20401;-63
2022/10/07 09:58:19;;;;;;;;;;;589.30;2048.00;;;;;;5092478;28;19963;-61
2022/10/07 10:00:46;;;;;;;;;;;589.30;2048.00;;;;;;5092261;28;19957;-62
2022/10/07 10:03:12;;;;;;;;;;;589.10;2099.20;;;;;;5092184;28;19919;-64
2022/10/07 10:05:39;;;;;;;;;;;589.40;2073.60;;;;;;5091168;28;19924;-63
2022/10/07 10:08:11;;;;;;;;;;;588.80;2022.40;;;;;;5090806;28;19912;-62
2022/10/07 10:10:36;;;;;;;;;;;564.10;2048.00;;;;;;5089867;28;20381;-62
2022/10/07 10:13:04;;;;;;;;;;;564.10;2022.40;;;;;;5091066;28;20002;-63
2022/10/07 10:15:37;;;;;;;;;;;588.90;2022.40;;;;;;5090877;28;20057;-61
2022/10/07 10:18:22;;;;;;;;;;;588.90;2073.60;;;;;;5090861;28;20235;-63
2022/10/07 10:20:49;;;;;;;;;;;589.30;1971.20;;;;;;5090754;28;20377;-62
2022/10/07 10:23:21;;;;;;;;;;;589.50;1971.20;;;;;;5090753;28;19947;-60
2022/10/07 10:29:00;;;;;;;;;;;589.30;1971.20;;;;;;5089995;28;19915;-64
2022/10/07 10:31:38;;;;;;;;;;;563.80;1945.60;;;;;;5047708;28;19919;-61
2022/10/07 10:34:26;;;;;;;;;;;563.60;1945.60;;;;;;5047318;28;20421;-62
2022/10/07 10:36:53;;;;;;;;;;;563.70;1945.60;;;;;;5047854;28;19935;-62
2022/10/07 10:39:27;;;;;;;;;;;563.80;1945.60;;;;;;5048190;28;20274;-63
2022/10/07 10:41:54;;;;;;;;;;;564.10;1945.60;;;;;;5050691;28;19979;-62
2022/10/07 10:44:38;;;;;;;;;;;563.50;1971.20;;;;;;5050496;28;19959;-62
2022/10/07 10:47:07;;;;;;;;;;;563.30;1971.20;;;;;;5050491;28;19909;-63
2022/10/07 10:49:32;;;;;;;;;;;563.70;1920.00;;;;;;5050774;28;19908;-62
2022/10/07 10:51:58;;;;;;;;;;;563.90;1945.60;;;;;;5033852;28;19935;-62
2022/10/07 10:54:26;;;;;;;;;;;563.60;1945.60;;;;;;5050093;28;19923;-62
2022/10/07 10:57:11;;;;;;;;;;;563.60;1945.60;;;;;;5049951;28;19913;-61
2022/10/07 10:59:55;;;;;;;;;;;564.00;1920.00;;;;;;5049934;28;19916;-62
2022/10/07 11:02:35;;;;;;;;;;;564.00;1945.60;;;;;;5050387;28;19952;-61
2022/10/07 11:05:13;;;;;;;;;;;563.80;1971.20;;;;;;5050400;28;19967;-62
2022/10/07 11:07:48;;;;;;;;;;;563.60;1996.80;;;;;;5053898;28;19971;-62
2022/10/07 11:10:21;;;;;;;;;;;564.00;1945.60;;;;;;5072181;28;20269;-61
2022/10/07 11:12:57;;;;;;;;;;;563.70;1996.80;;;;;;5072136;28;19908;-62
2022/10/07 11:15:23;;;;;;;;;;;564.10;1971.20;;;;;;5072105;28;20078;-62
2022/10/07 11:17:50;;;;;;;;;;;563.70;1971.20;;;;;;5072162;28;20419;-62
2022/10/07 11:20:22;;;;;;;;;;;563.90;1996.80;;;;;;5072118;28;20348;-63
2022/10/07 11:22:53;;;;;;;;;;;563.50;1971.20;;;;;;5072043;28;19915;-62
2022/10/07 11:25:48;;;;;;;;;;;563.20;1996.80;;;;;;5072034;28;19908;-62
2022/10/07 11:28:18;;;;;;;;;;;563.60;1996.80;;;;;;5069535;28;19908;-62
2022/10/07 11:31:02;;;;;;;;;;;563.70;1996.80;;;;;;5069554;28;20471;-62
2022/10/07 11:33:36;;;;;;;;;;;563.50;1996.80;;;;;;5069475;28;19915;-61
2022/10/07 11:36:22;;;;;;;;;;;563.60;2022.40;;;;;;5069756;28;20443;-63
2022/10/07 11:38:48;;;;;;;;;;;538.50;1996.80;;;;;;5069152;28;20483;-62
2022/10/07 11:41:20;;;;;;;;;;;563.40;2048.00;;;;;;5069414;28;20358;-61
2022/10/07 11:43:48;;;;;;;;;;;563.40;2022.40;;;;;;5069340;28;19913;-62
2022/10/07 11:46:16;;;;;;;;;;;563.30;1996.80;;;;;;5069222;28;19908;-62
2022/10/07 11:48:44;;;;;;;;;;;563.40;2022.40;;;;;;5069332;28;19908;-62
2022/10/07 11:51:18;;;;;;;;;;;538.50;2048.00;;;;;;5068440;28;19908;-62
2022/10/07 11:53:44;;;;;;;;;;;538.30;2022.40;;;;;;5068942;28;19909;-62
2022/10/07 11:56:19;;;;;;;;;;;538.50;1996.80;;;;;;5069259;28;19912;-62
2022/10/07 11:58:45;;;;;;;;;;;538.40;1996.80;;;;;;5068902;28;20120;-63
2022/10/07 12:01:29;;;;;;;;;;;538.30;2022.40;;;;;;5069176;28;19908;-62
2022/10/07 12:04:01;;;;;;;;;;;563.20;1996.80;;;;;;5069124;28;20373;-62
2022/10/07 12:06:26;;;;;;;;;;;563.40;1996.80;;;;;;5079279;28;20007;-62
2022/10/07 12:08:52;;;;;;;;;;;563.60;1971.20;;;;;;5091459;28;19943;-62
2022/10/07 12:11:18;;;;;;;;;;;563.60;1996.80;;;;;;5091395;28;19952;-62
2022/10/07 12:13:51;;;;;;;;;;;563.50;1996.80;;;;;;5090905;28;19954;-62
2022/10/07 12:16:22;;;;;;;;;;;563.70;1996.80;;;;;;5091193;28;20361;-62
2022/10/07 12:19:06;;;;;;;;;;;563.50;1971.20;;;;;;5091202;28;20336;-63
2022/10/07 12:21:50;;;;;;;;;;;563.50;1971.20;;;;;;5091360;28;19908;-62
2022/10/07 12:24:16;;;;;;;;;;;563.40;1996.80;;;;;;5091021;28;19908;-62
2022/10/07 12:26:45;;;;;;;;;;;563.70;1971.20;;;;;;5089629;28;19969;-63
2022/10/07 12:29:22;;;;;;;;;;;563.60;2022.40;;;;;;5090756;28;19959;-62
2022/10/07 12:31:48;;;;;;;;;;;563.70;1996.80;;;;;;5091085;28;19908;-62
2022/10/07 12:34:22;;;;;;;;;;;563.90;1996.80;;;;;;5090600;28;19920;-62
2022/10/07 12:36:47;;;;;;;;;;;563.80;1996.80;;;;;;5090721;28;19919;-64
2022/10/07 12:39:13;;;;;;;;;;;563.90;1971.20;;;;;;5090740;28;19909;-62
2022/10/07 12:41:45;;;;;;;;;;;563.90;1996.80;;;;;;5090970;28;19912;-62
2022/10/07 12:44:16;;;;;;;;;;;563.70;1996.80;;;;;;5090807;28;20350;-62
2022/10/07 12:46:49;;;;;;;;;;;564.00;1996.80;;;;;;5090900;28;19908;-62
2022/10/07 12:49:24;;;;;;;;;;;564.00;2022.40;;;;;;5090697;28;19912;-62
2022/10/07 12:51:52;;;;;;;;;;;563.70;1996.80;;;;;;5090773;28;19912;-62
2022/10/07 12:54:19;;;;;;;;;;;564.10;1996.80;;;;;;5090516;28;20002;-62
2022/10/07 12:56:45;;;;;;;;;;;564.00;1996.80;;;;;;5090723;28;20007;-62
2022/10/07 13:02:06;;;;;;;;;;;563.60;2022.40;;;;;;5090443;28;20010;-62
2022/10/07 13:04:35;;;;;;;;;;;563.70;2022.40;;;;;;5090599;28;19916;-62
2022/10/07 13:07:15;;;;;;;;;;;563.50;2022.40;;;;;;5089805;28;19931;-62
2022/10/07 13:09:44;;;;;;;;;;;563.30;2048.00;;;;;;5086268;28;19943;-62
2022/10/07 13:12:13;;;;;;;;;;;563.40;2048.00;;;;;;5088705;28;19912;-63
2022/10/07 13:14:45;;;;;;;;;;;563.30;2048.00;;;;;;5088832;28;20332;-63
2022/10/07 13:17:14;;;;;;;;;;;563.40;2022.40;;;;;;5089129;28;19912;-62
2022/10/07 13:19:42;;;;;;;;;;;563.70;2022.40;;;;;;5088788;28;19908;-62
2022/10/07 13:22:12;;;;;;;;;;;563.60;2022.40;;;;;;5088248;28;19919;-62
2022/10/07 13:24:45;;;;;;;;;;;563.60;1996.80;;;;;;5088466;28;19991;-62
2022/10/07 13:27:14;;;;;;;;;;;563.50;1996.80;;;;;;5068721;28;20443;-62
2022/10/07 13:29:40;;;;;;;;;;;563.70;1996.80;;;;;;5078982;28;19951;-62
2022/10/07 13:32:08;;;;;;;;;;;563.70;1996.80;;;;;;5088280;28;19956;-63
2022/10/07 13:34:34;;;;;;;;;;;563.90;1971.20;;;;;;5087995;28;19931;-62
2022/10/07 13:37:00;;;;;;;;;;;563.80;1971.20;;;;;;5088957;28;19912;-62
2022/10/07 13:39:25;;;;;;;;;;;563.90;1971.20;;;;;;5088192;28;19912;-63
2022/10/07 13:41:56;;;;;;;;;;;563.60;1971.20;;;;;;5088854;28;20270;-62
2022/10/07 13:44:22;;;;;;;;;;;563.40;1996.80;;;;;;5088589;28;19908;-62
2022/10/07 13:46:59;;;;;;;;;;;563.60;1971.20;;;;;;5088012;28;20386;-62
2022/10/07 13:49:26;;;;;;;;;;;563.40;1996.80;;;;;;5087671;28;19919;-62
2022/10/07 13:51:53;;;;;;;;;;;563.50;1996.80;;;;;;5087955;28;19912;-62
2022/10/07 13:54:21;;;;;;;;;;;563.40;2022.40;;;;;;5088142;28;19916;-62
2022/10/07 13:56:48;;;;;;;;;;;563.40;2022.40;;;;;;5088130;28;19908;-62
2022/10/07 13:59:16;;;;;;;;;;;563.40;2048.00;;;;;;5088183;28;19918;-63
2022/10/07 14:01:43;;;;;;;;;;;563.30;2048.00;;;;;;5088214;28;19995;-62
2022/10/07 14:04:17;;;;;;;;;;;563.50;2073.60;;;;;;5088349;28;19912;-62